Station Historical Data
Daily Summary for November 27, 2017 Units:  English    Metric   Both
« Previous Day
Next Day »
Daily Weekly Monthly Yearly Custom
  High: Low: Average:
Temperature: 62.1 °F 33.1 °F 46.8 °F
Dew Point: 34.9 °F 26.0 °F 30.2 °F
Humidity: 84% 26% 56%
Wind Speed: 3.5mph 0.0mph 0.7mph
Wind Gust: 3.5mph - -
Wind- - WSW
Pressure: 30.28 in 30.18 in -
Precipitation: 0.00 in    
Historical Graphs
 
 
Tabular Data for November 27, 2017
Time Temperature Dew Point Pressure Wind Wind Speed Wind Gust Humidity Rainfall Rate (Hourly) solar Conditions
00:03 40.6 °F 30.5 °F 30.19 in Calm     67% 0.00 in WeatherDisplay:10.37 W/m2 CLR
00:08 40.6 °F 30.1 °F 30.19 in Calm     66% 0.00 in WeatherDisplay:10.37 W/m2 CLR
00:13 40.6 °F 30.5 °F 30.20 in Calm     67% 0.00 in WeatherDisplay:10.37 W/m2 CLR
00:18 40.4 °F 30.7 °F 30.20 in Calm     68% 0.00 in WeatherDisplay:10.37 W/m2 CLR
00:23 40.2 °F 30.8 °F 30.20 in Calm     69% 0.00 in WeatherDisplay:10.37 W/m2 CLR
00:28 40.2 °F 30.5 °F 30.20 in Calm     68% 0.00 in WeatherDisplay:10.37 W/m2 CLR
00:34 40.3 °F 30.2 °F 30.20 in Calm     67% 0.00 in WeatherDisplay:10.37 W/m2 CLR
00:39 40.1 °F 31.4 °F 30.20 in Calm     71% 0.00 in WeatherDisplay:10.37 W/m2 CLR
00:44 39.8 °F 30.8 °F 30.19 in Calm     70% 0.00 in WeatherDisplay:10.37 W/m2 CLR
00:49 39.8 °F 30.8 °F 30.19 in NE 1.2 mph 1.2 mph 70% 0.00 in WeatherDisplay:10.37 W/m2 CLR
00:54 40.1 °F 30.0 °F 30.19 in NE 1.2 mph   67% 0.00 in WeatherDisplay:10.37 W/m2 CLR
00:59 40.6 °F 30.5 °F 30.19 in NE 1.2 mph   67% 0.00 in WeatherDisplay:10.37 W/m2 CLR
01:04 40.6 °F 29.4 °F 30.19 in Calm     64% 0.00 in WeatherDisplay:10.37 W/m2 CLR
01:09 41.0 °F 29.7 °F 30.19 in Calm     64% 0.00 in WeatherDisplay:10.37 W/m2 CLR
01:14 41.2 °F 29.9 °F 30.19 in Calm     64% 0.00 in WeatherDisplay:10.37 W/m2 CLR
01:19 41.1 °F 29.8 °F 30.19 in Calm     64% 0.00 in WeatherDisplay:10.37 W/m2 CLR
01:25 41.1 °F 29.8 °F 30.19 in Calm     64% 0.00 in WeatherDisplay:10.37 W/m2 CLR
01:30 41.0 °F 29.7 °F 30.19 in NE 1.2 mph   64% 0.00 in WeatherDisplay:10.37 W/m2 CLR
01:35 41.0 °F 29.7 °F 30.19 in NE 1.2 mph   64% 0.00 in WeatherDisplay:10.37 W/m2 CLR
01:40 41.0 °F 29.7 °F 30.19 in Calm     64% 0.00 in WeatherDisplay:10.37 W/m2 CLR
01:45 40.9 °F 29.3 °F 30.19 in NE 1.2 mph   63% 0.00 in WeatherDisplay:10.37 W/m2 CLR
01:50 41.2 °F 29.5 °F 30.18 in NE 1.2 mph 1.2 mph 63% 0.00 in WeatherDisplay:10.37 W/m2 CLR
01:55 41.4 °F 28.9 °F 30.18 in NE 1.2 mph   61% 0.00 in WeatherDisplay:10.37 W/m2 CLR
02:00 41.6 °F 28.7 °F 30.19 in ENE 1.2 mph   60% 0.00 in WeatherDisplay:10.37 W/m2 CLR
02:05 41.8 °F 28.1 °F 30.18 in East 1.2 mph   58% 0.00 in WeatherDisplay:10.37 W/m2 CLR
02:10 41.8 °F 28.5 °F 30.18 in East 1.2 mph   59% 0.00 in WeatherDisplay:10.37 W/m2 CLR
02:15 41.5 °F 28.6 °F 30.18 in Calm     60% 0.00 in WeatherDisplay:10.37 W/m2 CLR
02:20 41.3 °F 28.9 °F 30.18 in Calm     61% 0.00 in WeatherDisplay:10.37 W/m2 CLR
02:25 41.0 °F 28.6 °F 30.19 in East 1.2 mph   61% 0.00 in WeatherDisplay:10.37 W/m2 CLR
02:30 40.9 °F 28.5 °F 30.19 in East 1.2 mph   61% 0.00 in WeatherDisplay:10.37 W/m2 CLR
02:36 40.7 °F 28.3 °F 30.19 in Calm     61% 0.00 in WeatherDisplay:10.37 W/m2 CLR
02:41 40.6 °F 28.6 °F 30.19 in Calm     62% 0.00 in WeatherDisplay:10.37 W/m2 CLR
02:46 40.4 °F 28.4 °F 30.19 in Calm     62% 0.00 in WeatherDisplay:10.37 W/m2 CLR
02:51 40.4 °F 29.2 °F 30.19 in Calm     64% 0.00 in WeatherDisplay:10.37 W/m2 CLR
02:56 40.2 °F 28.6 °F 30.19 in Calm     63% 0.00 in WeatherDisplay:10.37 W/m2 CLR
03:01 40.3 °F 28.3 °F 30.19 in Calm     62% 0.00 in WeatherDisplay:10.37 W/m2 CLR
03:06 40.4 °F 28.4 °F 30.19 in East 1.2 mph   62% 0.00 in WeatherDisplay:10.37 W/m2 CLR
03:11 40.3 °F 28.3 °F 30.19 in East 1.2 mph   62% 0.00 in WeatherDisplay:10.37 W/m2 CLR
03:16 40.3 °F 28.3 °F 30.19 in Calm     62% 0.00 in WeatherDisplay:10.37 W/m2 CLR
03:21 40.4 °F 28.0 °F 30.19 in East 1.2 mph   61% 0.00 in WeatherDisplay:10.37 W/m2 CLR
03:26 40.4 °F 28.4 °F 30.19 in East 1.2 mph   62% 0.00 in WeatherDisplay:10.37 W/m2 CLR
03:31 40.3 °F 28.7 °F 30.19 in East 1.2 mph   63% 0.00 in WeatherDisplay:10.37 W/m2 CLR
03:36 40.1 °F 28.5 °F 30.19 in East 1.2 mph   63% 0.00 in WeatherDisplay:10.37 W/m2 CLR
03:42 40.2 °F 28.2 °F 30.19 in East 1.2 mph   62% 0.00 in WeatherDisplay:10.37 W/m2 CLR
03:47 40.1 °F 28.5 °F 30.19 in Calm     63% 0.00 in WeatherDisplay:10.37 W/m2 CLR
03:52 40.0 °F 28.4 °F 30.19 in Calm     63% 0.00 in WeatherDisplay:10.37 W/m2 CLR
03:57 39.8 °F 29.0 °F 30.19 in Calm     65% 0.00 in WeatherDisplay:10.37 W/m2 CLR
04:02 39.6 °F 29.2 °F 30.19 in Calm     66% 0.00 in WeatherDisplay:10.37 W/m2 CLR
04:07 39.4 °F 29.0 °F 30.19 in Calm     66% 0.00 in WeatherDisplay:10.37 W/m2 CLR
04:12 39.3 °F 28.9 °F 30.19 in Calm     66% 0.00 in WeatherDisplay:10.37 W/m2 CLR
04:17 39.2 °F 29.2 °F 30.19 in East 1.2 mph   67% 0.00 in WeatherDisplay:10.37 W/m2 CLR
04:22 39.2 °F 29.2 °F 30.19 in East 1.2 mph   67% 0.00 in WeatherDisplay:10.37 W/m2 CLR
04:27 39.1 °F 29.1 °F 30.20 in East 1.2 mph   67% 0.00 in WeatherDisplay:10.37 W/m2 CLR
04:32 38.9 °F 29.2 °F 30.19 in East 1.2 mph   68% 0.00 in WeatherDisplay:10.37 W/m2 CLR
04:37 38.7 °F 29.0 °F 30.19 in East 1.2 mph   68% 0.00 in WeatherDisplay:10.37 W/m2 CLR
04:42 38.4 °F 29.1 °F 30.20 in Calm     69% 0.00 in WeatherDisplay:10.37 W/m2 CLR
04:48 38.1 °F 30.2 °F 30.20 in Calm     73% 0.00 in WeatherDisplay:10.37 W/m2 CLR
04:53 37.3 °F 29.8 °F 30.20 in Calm     74% 0.00 in WeatherDisplay:10.37 W/m2 CLR
04:58 36.8 °F 29.6 °F 30.20 in Calm     75% 0.00 in WeatherDisplay:10.37 W/m2 CLR
05:03 36.4 °F 29.2 °F 30.20 in Calm     75% 0.00 in WeatherDisplay:10.37 W/m2 CLR
05:08 36.1 °F 29.3 °F 30.20 in Calm     76% 0.00 in WeatherDisplay:10.37 W/m2 CLR
05:13 35.9 °F 29.4 °F 30.20 in Calm     77% 0.00 in WeatherDisplay:10.37 W/m2 CLR
05:18 35.7 °F 29.2 °F 30.21 in Calm     77% 0.00 in WeatherDisplay:10.37 W/m2 CLR
05:23 35.8 °F 29.0 °F 30.21 in Calm     76% 0.00 in WeatherDisplay:10.37 W/m2 CLR
05:28 36.4 °F 28.9 °F 30.21 in Calm     74% 0.00 in WeatherDisplay:10.37 W/m2 CLR
05:33 36.4 °F 29.6 °F 30.21 in Calm     76% 0.00 in WeatherDisplay:10.37 W/m2 CLR
05:38 35.8 °F 29.3 °F 30.21 in Calm     77% 0.00 in WeatherDisplay:10.37 W/m2 CLR
05:43 35.5 °F 29.3 °F 30.21 in Calm     78% 0.00 in WeatherDisplay:10.37 W/m2 CLR
05:49 35.1 °F 28.9 °F 30.22 in Calm     78% 0.00 in WeatherDisplay:10.37 W/m2 CLR
05:54 35.0 °F 28.8 °F 30.22 in Calm     78% 0.00 in WeatherDisplay:10.37 W/m2 CLR
05:59 34.8 °F 28.6 °F 30.22 in Calm     78% 0.00 in WeatherDisplay:10.37 W/m2 CLR
06:04 34.8 °F 28.6 °F 30.22 in Calm     78% 0.00 in WeatherDisplay:10.37 W/m2 CLR
06:09 34.8 °F 28.6 °F 30.22 in Calm     78% 0.00 in WeatherDisplay:10.37 W/m2 CLR
06:14 34.8 °F 28.6 °F 30.22 in Calm     78% 0.00 in WeatherDisplay:10.37 W/m2 CLR
06:19 34.8 °F 28.6 °F 30.22 in Calm     78% 0.00 in WeatherDisplay:10.37 W/m2 CLR
06:24 34.8 °F 28.6 °F 30.23 in Calm     78% 0.00 in WeatherDisplay:10.37 W/m2 CLR
06:29 34.7 °F 28.9 °F 30.23 in Calm     79% 0.00 in WeatherDisplay:10.37 W/m2 CLR
06:34 34.5 °F 28.7 °F 30.23 in Calm     79% 0.00 in WeatherDisplay:10.37 W/m2 CLR
06:39 34.3 °F 28.5 °F 30.23 in Calm     79% 0.00 in WeatherDisplay:10.37 W/m2 CLR
06:44 34.1 °F 28.6 °F 30.23 in Calm     80% 0.00 in WeatherDisplay:10.37 W/m2 CLR
06:49 34.1 °F 28.6 °F 30.24 in Calm     80% 0.00 in WeatherDisplay:10.37 W/m2 CLR
06:54 33.9 °F 28.7 °F 30.24 in Calm     81% 0.00 in WeatherDisplay:10.37 W/m2 CLR
07:00 33.7 °F 28.5 °F 30.24 in Calm     81% 0.00 in WeatherDisplay:10.37 W/m2 CLR
07:05 33.5 °F 28.6 °F 30.24 in Calm     82% 0.00 in WeatherDisplay:10.37 W/m2 CLR
07:10 33.3 °F 28.4 °F 30.24 in Calm     82% 0.00 in WeatherDisplay:10.37 W/m2 CLR
07:15 33.2 °F 28.3 °F 30.24 in Calm     82% 0.00 in WeatherDisplay:10.37 W/m2 CLR
07:20 33.1 °F 28.5 °F 30.25 in Calm     83% 0.00 in WeatherDisplay:10.37 W/m2 CLR
07:25 33.2 °F 28.6 °F 30.24 in Calm     83% 0.00 in WeatherDisplay:10.37 W/m2 CLR
07:30 33.1 °F 28.8 °F 30.24 in Calm     84% 0.00 in WeatherDisplay:10.37 W/m2 CLR
07:35 33.1 °F 28.8 °F 30.25 in Calm     84% 0.00 in WeatherDisplay:10.37 W/m2 CLR
07:40 33.2 °F 28.9 °F 30.25 in Calm     84% 0.00 in WeatherDisplay:10.37 W/m2 CLR
07:45 33.2 °F 28.9 °F 30.25 in Calm     84% 0.00 in WeatherDisplay:10.37 W/m2 CLR
07:55 33.6 °F 29.0 °F 30.25 in Calm     83% 0.00 in WeatherDisplay:10.37 W/m2 CLR
08:01 33.8 °F 29.2 °F 30.26 in Calm     83% 0.00 in WeatherDisplay:10.37 W/m2 CLR
08:06 34.1 °F 29.8 °F 30.26 in Calm     84% 0.00 in WeatherDisplay:10.37 W/m2 CLR
08:11 34.3 °F 29.7 °F 30.26 in Calm     83% 0.00 in WeatherDisplay:10.37 W/m2 CLR
08:16 34.4 °F 29.8 °F 30.26 in Calm     83% 0.00 in WeatherDisplay:10.37 W/m2 CLR
08:21 34.6 °F 30.0 °F 30.26 in Calm     83% 0.00 in WeatherDisplay:10.37 W/m2 CLR
08:26 34.9 °F 30.6 °F 30.26 in Calm     84% 0.00 in WeatherDisplay:10.37 W/m2 CLR
08:31 35.3 °F 30.7 °F 30.26 in Calm     83% 0.00 in WeatherDisplay:10.37 W/m2 CLR
08:36 35.7 °F 30.4 °F 30.26 in Calm     81% 0.00 in WeatherDisplay:10.37 W/m2 CLR
08:41 36.3 °F 31.0 °F 30.26 in Calm     81% 0.00 in WeatherDisplay:10.37 W/m2 CLR
08:46 37.4 °F 31.8 °F 30.26 in Calm     80% 0.00 in WeatherDisplay:10.37 W/m2 CLR
08:51 38.3 °F 32.4 °F 30.26 in Calm     79% 0.00 in WeatherDisplay:10.37 W/m2 CLR
08:56 39.0 °F 32.4 °F 30.26 in Calm     77% 0.00 in WeatherDisplay:10.37 W/m2 CLR
09:01 39.9 °F 32.6 °F 30.26 in Calm     75% 0.00 in WeatherDisplay:10.37 W/m2 CLR
09:06 40.6 °F 33.0 °F 30.26 in Calm     74% 0.00 in WeatherDisplay:10.37 W/m2 CLR
09:12 41.1 °F 32.8 °F 30.27 in Calm     72% 0.00 in WeatherDisplay:10.37 W/m2 CLR
09:17 42.0 °F 31.5 °F 30.27 in Calm     66% 0.00 in WeatherDisplay:10.37 W/m2 CLR
09:22 42.9 °F 31.2 °F 30.27 in Calm     63% 0.00 in WeatherDisplay:10.37 W/m2 CLR
09:27 43.7 °F 31.1 °F 30.27 in Calm     61% 0.00 in WeatherDisplay:10.37 W/m2 CLR
09:32 44.5 °F 31.5 °F 30.27 in Calm     60% 0.00 in WeatherDisplay:10.37 W/m2 CLR
09:37 45.5 °F 30.7 °F 30.27 in Calm     56% 0.00 in WeatherDisplay:10.37 W/m2 CLR
09:42 46.2 °F 32.2 °F 30.27 in Calm     58% 0.00 in WeatherDisplay:10.37 W/m2 CLR
09:47 47.3 °F 31.5 °F 30.28 in WNW 1.2 mph   54% 0.00 in WeatherDisplay:10.37 W/m2 CLR
09:52 48.0 °F 30.2 °F 30.28 in WNW 1.2 mph 1.2 mph 50% 0.00 in WeatherDisplay:10.37 W/m2 CLR
09:57 48.6 °F 31.3 °F 30.28 in West 1.2 mph 1.2 mph 51% 0.00 in WeatherDisplay:10.37 W/m2 CLR
10:03 49.1 °F 31.7 °F 30.28 in West 1.2 mph   51% 0.00 in WeatherDisplay:10.37 W/m2 CLR
10:08 49.7 °F 31.3 °F 30.28 in WNW 1.2 mph   49% 0.00 in WeatherDisplay:10.37 W/m2 CLR
10:13 50.8 °F 30.2 °F 30.28 in WNW 1.2 mph 1.2 mph 45% 0.00 in WeatherDisplay:10.37 W/m2 CLR
10:18 52.0 °F 29.6 °F 30.28 in West 2.3 mph   42% 0.00 in WeatherDisplay:10.37 W/m2 CLR
10:23 53.5 °F 31.0 °F 30.28 in West 2.3 mph   42% 0.00 in WeatherDisplay:10.37 W/m2 CLR
10:28 54.4 °F 29.3 °F 30.28 in West 1.2 mph   38% 0.00 in WeatherDisplay:10.37 W/m2 CLR
10:33 55.0 °F 29.2 °F 30.28 in WNW 1.2 mph   37% 0.00 in WeatherDisplay:10.37 W/m2 CLR
10:43 55.2 °F 26.6 °F 30.28 in West 2.3 mph 2.3 mph 33% 0.00 in WeatherDisplay:10.37 W/m2 CLR
10:48 55.4 °F 28.2 °F 30.28 in West 2.3 mph   35% 0.00 in WeatherDisplay:10.37 W/m2 CLR
10:53 55.7 °F 28.4 °F 30.27 in West 2.3 mph 2.3 mph 35% 0.00 in WeatherDisplay:10.37 W/m2 CLR
10:56 55.8 °F 28.5 °F 30.27 in WNW 2.3 mph 2.3 mph 35% 0.00 in WeatherDisplay:10.37 W/m2 CLR
11:01 55.9 °F 27.2 °F 30.27 in NW 2.3 mph 2.3 mph 33% 0.00 in WeatherDisplay:10.37 W/m2 CLR
11:06 56.2 °F 28.2 °F 30.27 in NW 2.3 mph 2.3 mph 34% 0.00 in WeatherDisplay:10.37 W/m2 CLR
11:11 56.1 °F 29.5 °F 30.27 in WNW 2.3 mph 2.3 mph 36% 0.00 in WeatherDisplay:10.37 W/m2 CLR
11:16 56.2 °F 29.6 °F 30.27 in West 3.5 mph   36% 0.00 in WeatherDisplay:10.37 W/m2 CLR
11:21 56.5 °F 28.4 °F 30.27 in WNW 3.5 mph 3.5 mph 34% 0.00 in WeatherDisplay:10.37 W/m2 CLR
11:26 56.2 °F 28.2 °F 30.27 in West 3.5 mph   34% 0.00 in WeatherDisplay:10.37 W/m2 CLR
11:31 56.4 °F 26.9 °F 30.27 in West 3.5 mph 3.5 mph 32% 0.00 in WeatherDisplay:10.37 W/m2 CLR
11:36 57.0 °F 29.6 °F 30.27 in WNW 2.3 mph 2.3 mph 35% 0.00 in WeatherDisplay:10.37 W/m2 CLR
11:42 57.3 °F 28.4 °F 30.27 in WNW 1.2 mph   33% 0.00 in WeatherDisplay:10.37 W/m2 CLR
11:47 57.5 °F 29.3 °F 30.26 in WNW 2.3 mph 2.3 mph 34% 0.00 in WeatherDisplay:10.37 W/m2 CLR
11:52 58.0 °F 29.0 °F 30.26 in NW 2.3 mph 2.3 mph 33% 0.00 in WeatherDisplay:10.37 W/m2 CLR
11:57 58.4 °F 28.6 °F 30.26 in NW 3.5 mph   32% 0.00 in WeatherDisplay:10.37 W/m2 CLR
12:02 58.5 °F 28.7 °F 30.26 in WNW 3.5 mph   32% 0.00 in WeatherDisplay:10.37 W/m2 CLR
12:07 58.4 °F 27.1 °F 30.25 in WNW 2.3 mph 2.3 mph 30% 0.00 in WeatherDisplay:10.37 W/m2 CLR
12:09 58.4 °F 27.9 °F 30.25 in WNW 2.3 mph 2.3 mph 31% 0.00 in WeatherDisplay:10.37 W/m2 CLR
12:14 58.6 °F 28.0 °F 30.25 in NW 2.3 mph 2.3 mph 31% 0.00 in WeatherDisplay:10.37 W/m2 CLR
12:19 58.8 °F 28.2 °F 30.25 in NW 2.3 mph 2.3 mph 31% 0.00 in WeatherDisplay:10.37 W/m2 CLR
12:24 58.6 °F 28.0 °F 30.25 in WNW 2.3 mph 2.3 mph 31% 0.00 in WeatherDisplay:10.37 W/m2 CLR
12:29 58.6 °F 27.2 °F 30.25 in West 2.3 mph 2.3 mph 30% 0.00 in WeatherDisplay:10.37 W/m2 CLR
12:34 59.0 °F 26.8 °F 30.25 in NW 2.3 mph 2.3 mph 29% 0.00 in WeatherDisplay:10.37 W/m2 CLR
12:39 59.6 °F 28.1 °F 30.25 in NW 2.3 mph 2.3 mph 30% 0.00 in WeatherDisplay:10.37 W/m2 CLR
12:44 59.8 °F 26.6 °F 30.24 in WNW 2.3 mph 2.3 mph 28% 0.00 in WeatherDisplay:10.37 W/m2 CLR
12:50 59.8 °F 29.1 °F 30.24 in Calm   1.0 mph 31% 0.00 in WeatherDisplay:10.37 W/m2 CLR
12:55 60.3 °F 27.0 °F 30.24 in Calm   3.0 mph 28% 0.00 in WeatherDisplay:10.37 W/m2 CLR
13:00 60.4 °F 28.0 °F 30.24 in NNW 3.5 mph 3.5 mph 29% 0.00 in WeatherDisplay:10.37 W/m2 CLR
13:05 60.8 °F 28.3 °F 30.24 in NW 2.3 mph 2.3 mph 29% 0.00 in WeatherDisplay:10.37 W/m2 CLR
13:10 61.4 °F 27.1 °F 30.23 in NW 2.3 mph 2.3 mph 27% 0.00 in WeatherDisplay:10.37 W/m2 CLR
13:15 61.5 °F 29.7 °F 30.23 in NW 2.3 mph 2.3 mph 30% 0.00 in WeatherDisplay:10.37 W/m2 CLR
13:20 61.5 °F 27.2 °F 30.23 in NW 2.3 mph 2.3 mph 27% 0.00 in WeatherDisplay:10.37 W/m2 CLR
13:25 61.1 °F 26.8 °F 30.23 in NW 2.3 mph 2.3 mph 27% 0.00 in WeatherDisplay:10.37 W/m2 CLR
13:30 60.8 °F 26.6 °F 30.22 in NW 2.3 mph 2.3 mph 27% 0.00 in WeatherDisplay:10.37 W/m2 CLR
13:35 60.7 °F 27.4 °F 30.22 in WNW 2.3 mph 2.3 mph 28% 0.00 in WeatherDisplay:10.37 W/m2 CLR
13:40 60.6 °F 26.4 °F 30.22 in NW 2.3 mph 2.3 mph 27% 0.00 in WeatherDisplay:10.37 W/m2 CLR
13:45 60.4 °F 27.1 °F 30.22 in NW 2.3 mph   28% 0.00 in WeatherDisplay:10.37 W/m2 CLR
13:51 60.3 °F 27.9 °F 30.22 in WNW 2.3 mph   29% 0.00 in WeatherDisplay:10.37 W/m2 CLR
13:56 60.4 °F 27.1 °F 30.22 in WNW 2.3 mph 2.3 mph 28% 0.00 in WeatherDisplay:10.37 W/m2 CLR
14:01 60.4 °F 26.2 °F 30.21 in WNW 3.5 mph 3.5 mph 27% 0.00 in WeatherDisplay:10.37 W/m2 CLR
14:06 60.4 °F 26.2 °F 30.21 in WNW 3.5 mph 3.5 mph 27% 0.00 in WeatherDisplay:10.37 W/m2 CLR
14:11 60.4 °F 26.2 °F 30.21 in NW 2.3 mph 2.3 mph 27% 0.00 in WeatherDisplay:10.37 W/m2 CLR
14:16 60.4 °F 28.0 °F 30.20 in NW 2.3 mph   29% 0.00 in WeatherDisplay:10.37 W/m2 CLR
14:22 60.4 °F 26.2 °F 30.20 in WNW 2.3 mph 2.3 mph 27% 0.00 in WeatherDisplay:10.37 W/m2 CLR
14:27 60.6 °F 29.0 °F 30.20 in NNW 1.2 mph   30% 0.00 in WeatherDisplay:10.37 W/m2 CLR
14:32 60.9 °F 27.5 °F 30.20 in North 1.2 mph 1.2 mph 28% 0.00 in WeatherDisplay:10.37 W/m2 CLR
14:37 61.1 °F 27.7 °F 30.20 in NW 2.3 mph   28% 0.00 in WeatherDisplay:10.37 W/m2 CLR
14:42 61.6 °F 27.3 °F 30.19 in WNW 2.3 mph 2.3 mph 27% 0.00 in WeatherDisplay:10.37 W/m2 CLR
14:47 61.6 °F 27.3 °F 30.19 in NW 2.3 mph 2.3 mph 27% 0.00 in WeatherDisplay:10.37 W/m2 CLR
14:53 61.6 °F 27.3 °F 30.19 in NNW 2.3 mph   27% 0.00 in WeatherDisplay:10.37 W/m2 CLR
14:58 62.1 °F 30.3 °F 30.19 in NNW 2.3 mph   30% 0.00 in WeatherDisplay:10.37 W/m2 CLR
15:03 62.1 °F 26.8 °F 30.19 in NW 2.3 mph   26% 0.00 in WeatherDisplay:10.37 W/m2 CLR
15:08 62.0 °F 27.6 °F 30.19 in West 2.3 mph 2.3 mph 27% 0.00 in WeatherDisplay:10.37 W/m2 CLR
15:13 61.7 °F 27.3 °F 30.19 in WNW 2.3 mph   27% 0.00 in WeatherDisplay:10.37 W/m2 CLR
15:18 61.4 °F 27.1 °F 30.19 in WNW 2.3 mph   27% 0.00 in WeatherDisplay:10.37 W/m2 CLR
15:23 61.2 °F 26.0 °F 30.19 in West 2.3 mph 2.3 mph 26% 0.00 in WeatherDisplay:10.37 W/m2 CLR
15:28 61.0 °F 27.6 °F 30.19 in West 2.3 mph   28% 0.00 in WeatherDisplay:10.37 W/m2 CLR
15:33 60.9 °F 27.5 °F 30.19 in West 2.3 mph   28% 0.00 in WeatherDisplay:10.37 W/m2 CLR
15:38 60.9 °F 27.5 °F 30.19 in West 1.2 mph 1.2 mph 28% 0.00 in WeatherDisplay:10.37 W/m2 CLR
15:43 60.8 °F 29.1 °F 30.19 in West 1.2 mph   30% 0.00 in WeatherDisplay:10.37 W/m2 CLR
15:48 60.3 °F 27.0 °F 30.19 in WNW 1.2 mph   28% 0.00 in WeatherDisplay:10.37 W/m2 CLR
15:54 60.2 °F 28.6 °F 30.20 in NW 1.2 mph   30% 0.00 in WeatherDisplay:10.37 W/m2 CLR
15:59 60.1 °F 28.5 °F 30.20 in WNW 1.2 mph   30% 0.00 in WeatherDisplay:10.37 W/m2 CLR
16:04 59.9 °F 29.2 °F 30.20 in WNW 1.2 mph   31% 0.00 in WeatherDisplay:10.37 W/m2 FEW
16:09 59.6 °F 28.9 °F 30.20 in Calm     31% 0.00 in WeatherDisplay:10.37 W/m2 FEW
16:14 59.3 °F 28.6 °F 30.20 in Calm     31% 0.00 in WeatherDisplay:10.37 W/m2 FEW
16:19 59.2 °F 27.7 °F 30.21 in WNW 1.2 mph   30% 0.00 in WeatherDisplay:10.37 W/m2 FEW
16:24 58.8 °F 29.7 °F 30.21 in WNW 1.2 mph   33% 0.00 in WeatherDisplay:10.37 W/m2 FEW
16:29 58.3 °F 29.3 °F 30.21 in WNW 1.2 mph   33% 0.00 in WeatherDisplay:10.37 W/m2 FEW
16:34 58.2 °F 30.7 °F 30.21 in Calm     35% 0.00 in WeatherDisplay:10.37 W/m2 FEW
16:39 57.8 °F 30.3 °F 30.21 in Calm     35% 0.00 in WeatherDisplay:10.37 W/m2 FEW
16:44 57.5 °F 30.0 °F 30.21 in Calm     35% 0.00 in WeatherDisplay:10.37 W/m2 FEW
16:49 57.3 °F 29.9 °F 30.21 in Calm     35% 0.00 in WeatherDisplay:10.37 W/m2 FEW
16:54 57.1 °F 30.4 °F 30.21 in Calm     36% 0.00 in WeatherDisplay:10.37 W/m2 FEW
16:59 56.9 °F 30.2 °F 30.21 in Calm     36% 0.00 in WeatherDisplay:10.37 W/m2 FEW
17:04 56.6 °F 29.2 °F 30.21 in Calm     35% 0.00 in WeatherDisplay:10.37 W/m2 FEW
17:10 56.4 °F 29.7 °F 30.21 in Calm     36% 0.00 in WeatherDisplay:10.37 W/m2 FEW
17:15 56.0 °F 30.1 °F 30.21 in Calm     37% 0.00 in WeatherDisplay:10.37 W/m2 FEW
17:20 55.7 °F 29.8 °F 30.22 in Calm     37% 0.00 in WeatherDisplay:10.37 W/m2 FEW
17:25 55.3 °F 30.7 °F 30.21 in Calm     39% 0.00 in WeatherDisplay:10.37 W/m2 FEW
17:30 54.9 °F 31.6 °F 30.21 in Calm     41% 0.00 in WeatherDisplay:10.37 W/m2 FEW
17:35 54.5 °F 30.6 °F 30.22 in Calm     40% 0.00 in WeatherDisplay:10.37 W/m2 FEW
17:40 54.3 °F 31.1 °F 30.22 in Calm     41% 0.00 in WeatherDisplay:10.37 W/m2 FEW
17:45 53.8 °F 31.8 °F 30.22 in Calm     43% 0.00 in WeatherDisplay:10.37 W/m2 FEW
17:50 53.2 °F 31.3 °F 30.22 in Calm     43% 0.00 in WeatherDisplay:10.37 W/m2 FEW
17:55 52.6 °F 31.8 °F 30.22 in Calm     45% 0.00 in WeatherDisplay:10.37 W/m2 FEW
18:01 52.0 °F 31.3 °F 30.22 in Calm     45% 0.00 in WeatherDisplay:10.37 W/m2 FEW
18:06 51.4 °F 32.3 °F 30.23 in Calm     48% 0.00 in WeatherDisplay:10.37 W/m2 CLR
18:11 50.9 °F 31.9 °F 30.23 in Calm     48% 0.00 in WeatherDisplay:10.37 W/m2 CLR
18:16 50.4 °F 31.9 °F 30.23 in Calm     49% 0.00 in WeatherDisplay:10.37 W/m2 CLR
18:21 50.0 °F 32.6 °F 30.23 in Calm     51% 0.00 in WeatherDisplay:10.37 W/m2 CLR
18:26 49.6 °F 33.2 °F 30.23 in Calm     53% 0.00 in WeatherDisplay:10.37 W/m2 CLR
18:31 49.2 °F 33.3 °F 30.23 in Calm     54% 0.00 in WeatherDisplay:10.37 W/m2 CLR
18:36 48.8 °F 32.9 °F 30.23 in Calm     54% 0.00 in WeatherDisplay:10.37 W/m2 CLR
18:41 48.5 °F 33.1 °F 30.23 in Calm     55% 0.00 in WeatherDisplay:10.37 W/m2 CLR
18:46 48.1 °F 33.1 °F 30.23 in Calm     56% 0.00 in WeatherDisplay:10.37 W/m2 CLR
18:51 47.9 °F 33.8 °F 30.23 in Calm     58% 0.00 in WeatherDisplay:10.37 W/m2 CLR
18:56 47.7 °F 33.2 °F 30.24 in Calm     57% 0.00 in WeatherDisplay:10.37 W/m2 CLR
19:01 47.6 °F 34.0 °F 30.24 in Calm     59% 0.00 in WeatherDisplay:10.37 W/m2 CLR
19:07 47.5 °F 33.9 °F 30.24 in Calm     59% 0.00 in WeatherDisplay:10.37 W/m2 CLR
19:12 47.2 °F 33.6 °F 30.25 in Calm     59% 0.00 in WeatherDisplay:10.37 W/m2 CLR
19:17 47.0 °F 33.8 °F 30.25 in Calm     60% 0.00 in WeatherDisplay:10.37 W/m2 CLR
19:22 46.8 °F 33.6 °F 30.25 in Calm     60% 0.00 in WeatherDisplay:10.37 W/m2 CLR
19:27 46.5 °F 33.8 °F 30.25 in Calm     61% 0.00 in WeatherDisplay:10.37 W/m2 CLR
19:32 46.3 °F 34.4 °F 30.25 in Calm     63% 0.00 in WeatherDisplay:10.37 W/m2 CLR
19:37 46.0 °F 34.1 °F 30.25 in Calm     63% 0.00 in WeatherDisplay:10.37 W/m2 CLR
19:42 45.8 °F 34.3 °F 30.25 in Calm     64% 0.00 in WeatherDisplay:10.37 W/m2 CLR
19:47 45.6 °F 34.9 °F 30.25 in Calm     66% 0.00 in WeatherDisplay:10.37 W/m2 CLR
19:52 45.7 °F 34.6 °F 30.25 in Calm     65% 0.00 in WeatherDisplay:10.37 W/m2 CLR
19:57 46.2 °F 34.7 °F 30.25 in Calm     64% 0.00 in WeatherDisplay:10.37 W/m2 CLR
20:02 46.0 °F 33.7 °F 30.25 in Calm     62% 0.00 in WeatherDisplay:10.37 W/m2 CLR
20:07 45.7 °F 33.4 °F 30.25 in Calm     62% 0.00 in WeatherDisplay:10.37 W/m2 CLR
20:13 45.4 °F 33.5 °F 30.25 in Calm     63% 0.00 in WeatherDisplay:10.37 W/m2 CLR
20:18 45.2 °F 33.3 °F 30.26 in Calm     63% 0.00 in WeatherDisplay:10.37 W/m2 CLR
20:23 45.0 °F 33.9 °F 30.26 in Calm     65% 0.00 in WeatherDisplay:10.37 W/m2 CLR
20:28 44.8 °F 33.7 °F 30.26 in Calm     65% 0.00 in WeatherDisplay:10.37 W/m2 CLR
20:33 44.6 °F 33.9 °F 30.26 in Calm     66% 0.00 in WeatherDisplay:10.37 W/m2 CLR
20:38 44.5 °F 33.8 °F 30.26 in Calm     66% 0.00 in WeatherDisplay:10.37 W/m2 CLR
20:43 44.4 °F 34.1 °F 30.26 in Calm     67% 0.00 in WeatherDisplay:10.37 W/m2 CLR
20:48 44.4 °F 33.0 °F 30.26 in Calm     64% 0.00 in WeatherDisplay:10.37 W/m2 CLR
20:53 44.4 °F 33.7 °F 30.26 in Calm     66% 0.00 in WeatherDisplay:10.37 W/m2 CLR
20:58 44.2 °F 32.8 °F 30.26 in Calm     64% 0.00 in WeatherDisplay:10.37 W/m2 CLR
21:03 44.3 °F 33.3 °F 30.26 in Calm     65% 0.00 in WeatherDisplay:10.37 W/m2 CLR
21:09 44.2 °F 33.6 °F 30.27 in Calm     66% 0.00 in WeatherDisplay:10.37 W/m2 CLR
21:14 44.2 °F 34.3 °F 30.27 in Calm     68% 0.00 in WeatherDisplay:10.37 W/m2 CLR
21:19 44.2 °F 34.3 °F 30.27 in WNW 1.2 mph   68% 0.00 in WeatherDisplay:10.37 W/m2 CLR
21:24 44.0 °F 34.1 °F 30.26 in NW 1.2 mph   68% 0.00 in WeatherDisplay:10.37 W/m2 CLR
21:29 43.9 °F 33.6 °F 30.27 in Calm     67% 0.00 in WeatherDisplay:10.37 W/m2 CLR
21:34 43.9 °F 33.6 °F 30.27 in Calm     67% 0.00 in WeatherDisplay:10.37 W/m2 CLR
21:39 43.7 °F 33.5 °F 30.27 in Calm     67% 0.00 in WeatherDisplay:10.37 W/m2 CLR
21:44 43.7 °F 33.8 °F 30.27 in Calm     68% 0.00 in WeatherDisplay:10.37 W/m2 CLR
21:49 43.7 °F 33.8 °F 30.27 in Calm     68% 0.00 in WeatherDisplay:10.37 W/m2 CLR
21:54 43.9 °F 33.3 °F 30.27 in Calm     66% 0.00 in WeatherDisplay:10.37 W/m2 CLR
21:59 44.0 °F 33.7 °F 30.27 in Calm     67% 0.00 in WeatherDisplay:10.37 W/m2 CLR
22:04 43.9 °F 33.3 °F 30.27 in Calm     66% 0.00 in WeatherDisplay:10.37 W/m2 CLR
22:10 43.7 °F 33.8 °F 30.28 in Calm     68% 0.00 in WeatherDisplay:10.37 W/m2 CLR
22:15 43.5 °F 33.3 °F 30.28 in Calm     67% 0.00 in WeatherDisplay:10.37 W/m2 CLR
22:20 43.3 °F 34.2 °F 30.28 in Calm     70% 0.00 in WeatherDisplay:10.37 W/m2 CLR
22:25 43.3 °F 33.1 °F 30.28 in Calm     67% 0.00 in WeatherDisplay:10.37 W/m2 CLR
22:30 43.7 °F 33.1 °F 30.28 in Calm     66% 0.00 in WeatherDisplay:10.37 W/m2 CLR
22:35 43.6 °F 33.0 °F 30.27 in Calm     66% 0.00 in WeatherDisplay:10.37 W/m2 CLR
22:40 43.7 °F 33.1 °F 30.27 in Calm     66% 0.00 in WeatherDisplay:10.37 W/m2 CLR
22:45 43.9 °F 33.3 °F 30.27 in Calm     66% 0.00 in WeatherDisplay:10.37 W/m2 CLR
22:50 43.9 °F 32.5 °F 30.27 in Calm     64% 0.00 in WeatherDisplay:10.37 W/m2 CLR
22:55 44.4 °F 32.6 °F 30.27 in Calm     63% 0.00 in WeatherDisplay:10.37 W/m2 CLR
23:00 44.6 °F 32.8 °F 30.28 in Calm     63% 0.00 in WeatherDisplay:10.37 W/m2 CLR
23:05 44.7 °F 32.5 °F 30.28 in Calm     62% 0.00 in WeatherDisplay:10.37 W/m2 CLR
23:11 44.8 °F 32.6 °F 30.28 in Calm     62% 0.00 in WeatherDisplay:10.37 W/m2 CLR
23:16 44.7 °F 32.9 °F 30.28 in Calm     63% 0.00 in WeatherDisplay:10.37 W/m2 CLR
23:21 44.3 °F 32.9 °F 30.28 in Calm     64% 0.00 in WeatherDisplay:10.37 W/m2 CLR
23:26 44.3 °F 33.7 °F 30.28 in Calm     66% 0.00 in WeatherDisplay:10.37 W/m2 CLR
23:31 43.8 °F 33.9 °F 30.28 in Calm     68% 0.00 in WeatherDisplay:10.37 W/m2 CLR
23:36 43.3 °F 34.2 °F 30.28 in Calm     70% 0.00 in WeatherDisplay:10.37 W/m2 CLR
23:41 42.9 °F 33.8 °F 30.28 in Calm     70% 0.00 in WeatherDisplay:10.37 W/m2 CLR
23:46 42.6 °F 33.9 °F 30.28 in Calm     71% 0.00 in WeatherDisplay:10.37 W/m2 CLR
23:51 42.3 °F 34.3 °F 30.28 in Calm     73% 0.00 in WeatherDisplay:10.37 W/m2 CLR
23:56 41.9 °F 33.9 °F 30.28 in Calm     73% 0.00 in WeatherDisplay:10.37 W/m2 CLR
Piedmont Bend
Compliments of Weather Underground - 4 mb